createdAt,value
2019-01-04T00:55:29.516Z,3.70
2019-01-04T00:58:23.885Z,3.80
2019-01-04T01:01:40.632Z,3.70
2019-01-04T01:04:26.454Z,3.70
2019-01-04T01:07:41.958Z,3.60
2019-01-04T01:11:13.472Z,3.60
2019-01-04T01:14:18.161Z,3.40
2019-01-04T01:17:23.130Z,3.20
2019-01-04T01:21:03.450Z,3.40
2019-01-04T01:24:34.782Z,3.60
2019-01-04T01:28:00.063Z,3.40
2019-01-04T01:31:25.523Z,3.20
2019-01-04T01:34:12.288Z,3.00
2019-01-04T01:37:31.048Z,3.20
2019-01-04T01:40:37.101Z,3.20
2019-01-04T01:43:53.547Z,3.20
2019-01-04T01:46:45.551Z,3.30
2019-01-04T01:49:55.546Z,3.50
2019-01-04T01:52:35.996Z,3.20
2019-01-04T01:55:05.394Z,3.10
2019-01-04T01:57:34.910Z,3.00
2019-01-04T02:00:05.068Z,3.00
2019-01-04T02:02:34.729Z,3.00
2019-01-04T02:05:05.347Z,3.00
2019-01-04T02:07:35.886Z,3.10
2019-01-04T02:10:06.599Z,3.00
2019-01-04T02:12:35.957Z,3.10
2019-01-04T02:15:05.790Z,3.40
2019-01-04T02:17:35.200Z,3.20
2019-01-04T02:20:04.737Z,3.10
2019-01-04T02:22:34.070Z,3.00
2019-01-04T02:25:03.426Z,3.00
2019-01-04T02:27:35.150Z,3.00
2019-01-04T02:30:04.340Z,3.00
2019-01-04T02:32:33.731Z,3.00
2019-01-04T02:35:03.099Z,2.90
2019-01-04T02:37:32.400Z,2.90
2019-01-04T02:40:01.787Z,2.90
2019-01-04T02:42:31.209Z,3.00
2019-01-04T02:45:00.539Z,3.20
2019-01-04T02:47:29.836Z,3.00
2019-01-04T02:49:59.177Z,3.10
2019-01-04T02:52:28.853Z,3.30
2019-01-04T02:54:59.825Z,3.10
2019-01-04T02:57:29.135Z,3.00
2019-01-04T02:59:58.587Z,2.90
2019-01-04T03:02:27.923Z,2.90
2019-01-04T03:04:57.403Z,2.90
2019-01-04T03:07:26.805Z,2.90
2019-01-04T03:09:56.182Z,2.80
2019-01-04T03:12:25.583Z,2.80
2019-01-04T03:14:56.520Z,2.80
2019-01-04T03:17:25.919Z,2.70
2019-01-04T03:19:55.293Z,2.60
2019-01-04T03:22:24.643Z,2.60
2019-01-04T03:24:54.014Z,2.70
2019-01-04T03:27:23.359Z,2.70
2019-01-04T03:29:52.639Z,3.00
2019-01-04T03:32:22.103Z,2.90
2019-01-04T03:34:51.399Z,3.10
2019-01-04T03:37:20.824Z,2.90
2019-01-04T03:39:50.188Z,2.80
2019-01-04T03:42:19.553Z,2.80
2019-01-04T03:44:49.774Z,3.00
2019-01-04T03:47:19.200Z,2.90
2019-01-04T03:49:48.822Z,2.80
2019-01-04T03:52:18.199Z,2.80
2019-01-04T03:54:47.624Z,2.80
2019-01-04T03:57:17.011Z,2.80
2019-01-04T03:59:46.347Z,2.90
2019-01-04T04:02:15.710Z,3.10
2019-01-04T04:04:45.057Z,3.20
2019-01-04T04:07:14.570Z,3.30
2019-01-04T04:09:44.295Z,3.40
2019-01-04T04:12:13.658Z,3.40
2019-01-04T04:14:45.733Z,3.20
2019-01-04T04:17:15.043Z,3.00
2019-01-04T04:19:44.409Z,3.00
2019-01-04T04:22:13.755Z,3.10
2019-01-04T04:24:43.274Z,3.20
2019-01-04T04:27:12.639Z,3.40
2019-01-04T04:29:41.989Z,3.30
2019-01-04T04:32:12.672Z,3.20
2019-01-04T04:34:42.051Z,3.10
2019-01-04T04:37:11.358Z,3.10
2019-01-04T04:39:40.787Z,3.10
2019-01-04T04:42:10.104Z,3.10
2019-01-04T04:44:39.520Z,3.40
2019-01-04T04:47:08.902Z,3.50
2019-01-04T04:49:40.802Z,3.70
2019-01-04T04:52:10.151Z,3.50
2019-01-04T04:54:39.687Z,3.40
2019-01-04T04:57:09.168Z,3.40
2019-01-04T04:59:38.506Z,3.30
2019-01-04T05:02:07.903Z,3.30
2019-01-04T05:04:37.326Z,3.30
2019-01-04T05:07:06.709Z,3.30
2019-01-04T05:09:38.229Z,3.30
2019-01-04T05:12:10.038Z,3.30
2019-01-04T05:14:41.663Z,3.30
2019-01-04T05:17:11.034Z,3.30
2019-01-04T05:19:40.423Z,3.30
2019-01-04T05:22:09.747Z,3.30
2019-01-04T05:24:40.229Z,3.30
2019-01-04T05:27:10.754Z,3.30
2019-01-04T05:29:40.153Z,3.30
2019-01-04T05:32:09.591Z,3.30
2019-01-04T05:34:40.887Z,3.30
2019-01-04T05:37:10.558Z,3.30
2019-01-04T05:39:41.135Z,3.30
2019-01-04T05:42:10.692Z,3.30
2019-01-04T05:44:41.183Z,3.20
2019-01-04T05:47:12.531Z,3.20
2019-01-04T05:49:41.886Z,3.20
2019-01-04T05:52:15.508Z,3.20
2019-01-04T05:54:44.858Z,3.20
2019-01-04T05:57:14.270Z,3.20
2019-01-04T05:59:44.636Z,3.20
2019-01-04T06:02:14.000Z,3.20
2019-01-04T06:04:43.430Z,3.20
2019-01-04T06:07:13.254Z,3.20
2019-01-04T06:09:43.759Z,3.30
2019-01-04T06:12:13.097Z,3.20
2019-01-04T06:14:42.587Z,3.30
2019-01-04T06:17:14.873Z,3.30
2019-01-04T06:19:46.825Z,3.30
2019-01-04T06:22:17.366Z,3.30
2019-01-04T06:24:49.019Z,3.20
2019-01-04T06:27:24.479Z,3.30
2019-01-04T06:29:53.816Z,3.40
2019-01-04T06:32:25.158Z,3.40
2019-01-04T06:34:54.481Z,3.40
2019-01-04T06:37:23.846Z,3.40
2019-01-04T06:39:53.263Z,3.40
2019-01-04T06:42:22.840Z,3.40
2019-01-04T06:44:55.260Z,3.50
2019-01-04T06:47:25.072Z,3.50
2019-01-04T06:49:54.545Z,3.50
2019-01-04T06:52:24.307Z,3.50
2019-01-04T06:55:41.015Z,3.60
2019-01-04T06:58:12.385Z,3.60
2019-01-04T07:00:41.799Z,3.50
2019-01-04T07:03:11.265Z,3.60
2019-01-04T07:05:41.863Z,3.60
2019-01-04T07:08:11.664Z,3.60
2019-01-04T07:10:43.641Z,3.50
2019-01-04T07:13:15.175Z,3.50
2019-01-04T07:15:44.556Z,3.60
2019-01-04T07:18:17.010Z,3.60
2019-01-04T07:20:49.150Z,3.60
2019-01-04T07:23:20.100Z,3.60
2019-01-04T07:25:49.479Z,3.70
2019-01-04T07:28:18.784Z,3.70
2019-01-04T07:30:48.281Z,3.70
2019-01-04T07:33:18.014Z,3.70
2019-01-04T07:35:47.437Z,3.70
2019-01-04T07:38:16.926Z,3.80
2019-01-04T07:40:46.295Z,3.90
2019-01-04T07:43:16.572Z,4.00
2019-01-04T07:45:46.403Z,3.90
2019-01-04T07:48:16.851Z,3.90
2019-01-04T07:50:46.239Z,3.90
2019-01-04T07:53:18.693Z,3.90
2019-01-04T07:55:48.376Z,3.90
2019-01-04T07:58:17.790Z,3.90
2019-01-04T08:00:49.960Z,4.20
2019-01-04T08:03:23.680Z,4.10
2019-01-04T08:05:55.089Z,4.30
2019-01-04T08:08:30.330Z,4.30
2019-01-04T08:11:03.173Z,4.30
2019-01-04T08:13:41.229Z,4.30
2019-01-04T08:16:13.354Z,4.30
2019-01-04T08:18:43.022Z,4.40
2019-01-04T08:21:12.517Z,4.40
2019-01-04T08:23:43.543Z,4.50
2019-01-04T08:26:17.136Z,4.40
2019-01-04T08:28:49.422Z,4.40
2019-01-04T08:31:21.378Z,4.50
2019-01-04T08:33:50.773Z,4.40
2019-01-04T08:36:22.819Z,4.50
2019-01-04T08:38:51.958Z,4.40
2019-01-04T08:41:26.960Z,4.40
2019-01-04T08:43:56.370Z,4.40
2019-01-04T08:46:25.803Z,4.40
2019-01-04T08:48:57.792Z,4.50
2019-01-04T08:51:27.531Z,4.40
2019-01-04T08:54:01.631Z,4.30
2019-01-04T08:56:34.686Z,4.30
2019-01-04T08:59:09.686Z,5.00
2019-01-04T09:01:43.250Z,4.70
2019-01-04T09:04:15.092Z,4.70
2019-01-04T09:06:44.485Z,5.30
2019-01-04T09:09:15.003Z,6.30
2019-01-04T09:11:47.180Z,6.00
2019-01-04T09:14:16.874Z,5.80
2019-01-04T09:16:46.321Z,5.50
2019-01-04T09:19:16.764Z,5.30
2019-01-04T09:21:48.712Z,5.20
2019-01-04T09:24:21.095Z,5.00
2019-01-04T09:26:53.660Z,4.90
2019-01-04T09:29:23.137Z,4.80
2019-01-04T09:31:52.861Z,4.80
2019-01-04T09:34:22.326Z,4.80
2019-01-04T09:36:51.819Z,4.90
2019-01-04T09:39:31.128Z,4.80
2019-01-04T09:42:10.555Z,4.90
2019-01-04T09:44:43.233Z,4.90
2019-01-04T09:47:16.885Z,4.80
2019-01-04T09:49:48.364Z,4.80
2019-01-04T09:52:22.059Z,4.70
2019-01-04T09:54:51.163Z,4.70
2019-01-04T09:57:23.530Z,4.70
2019-01-04T09:59:56.326Z,4.80
2019-01-04T10:02:29.121Z,4.80
2019-01-04T10:04:59.643Z,4.80
2019-01-04T10:07:34.250Z,4.80
2019-01-04T10:10:06.354Z,4.80
2019-01-04T10:12:36.192Z,4.70
2019-01-04T10:15:06.356Z,4.70
2019-01-04T10:17:40.850Z,4.60
2019-01-04T10:20:10.599Z,4.60
2019-01-04T10:22:40.039Z,4.50
2019-01-04T10:25:12.783Z,4.60
2019-01-04T10:27:43.712Z,4.60
2019-01-04T10:30:29.207Z,4.40
2019-01-04T10:32:59.305Z,4.60
2019-01-04T10:35:32.172Z,4.50
2019-01-04T10:38:08.971Z,4.50
2019-01-04T10:40:38.813Z,4.50
2019-01-04T10:43:14.783Z,4.60
2019-01-04T10:45:51.062Z,4.70
2019-01-04T10:48:24.955Z,4.70
2019-01-04T10:50:54.479Z,4.80
2019-01-04T10:53:26.440Z,4.90
2019-01-04T10:55:58.968Z,4.80
2019-01-04T10:58:28.353Z,4.80
2019-01-04T11:00:57.810Z,4.70
2019-01-04T11:03:27.278Z,4.80
2019-01-04T11:05:56.967Z,4.80
2019-01-04T11:08:28.898Z,4.80
2019-01-04T11:11:11.255Z,4.80
2019-01-04T11:13:42.420Z,4.70
2019-01-04T11:16:12.020Z,4.60
2019-01-04T11:18:41.676Z,4.60
2019-01-04T11:21:13.579Z,4.50
2019-01-04T11:24:35.754Z,4.50
2019-01-04T11:27:27.976Z,4.50
2019-01-04T11:30:19.006Z,4.50
2019-01-04T11:33:25.754Z,4.50
2019-01-04T11:36:26.393Z,4.50
2019-01-04T11:39:31.883Z,4.60
2019-01-04T11:42:38.203Z,4.60
2019-01-04T11:45:42.523Z,4.70
2019-01-04T11:48:42.208Z,4.80
2019-01-04T11:51:50.862Z,4.90
2019-01-04T11:54:26.975Z,4.70
2019-01-04T11:56:56.444Z,4.70
2019-01-04T11:59:25.909Z,4.70
2019-01-04T12:01:55.334Z,4.50
2019-01-04T12:04:28.161Z,4.60
2019-01-04T12:06:57.755Z,4.60
2019-01-04T12:09:27.230Z,4.60
2019-01-04T12:11:56.638Z,4.60
2019-01-04T12:14:26.066Z,4.70
2019-01-04T12:16:55.484Z,4.80
2019-01-04T12:19:26.486Z,4.90
2019-01-04T12:21:55.948Z,4.90
2019-01-04T12:24:25.851Z,4.80
2019-01-04T12:26:55.302Z,4.80
2019-01-04T12:29:24.767Z,4.80
2019-01-04T12:31:55.445Z,4.80
2019-01-04T12:34:25.516Z,4.80
2019-01-04T12:36:55.076Z,4.80
2019-01-04T12:39:26.277Z,4.90
2019-01-04T12:41:55.816Z,4.80
2019-01-04T12:44:27.100Z,4.90
2019-01-04T12:46:56.511Z,4.90
2019-01-04T12:49:26.100Z,4.80
2019-01-04T12:51:55.576Z,4.90
2019-01-04T12:54:27.064Z,4.90
2019-01-04T12:56:56.542Z,4.80
2019-01-04T12:59:26.067Z,4.80
2019-01-04T13:01:55.510Z,4.80
2019-01-04T13:04:30.420Z,4.90
2019-01-04T13:06:59.871Z,4.90
2019-01-04T13:09:29.429Z,4.80
2019-01-04T13:12:03.680Z,4.90
2019-01-04T13:14:33.086Z,4.90
2019-01-04T13:17:03.721Z,4.90
2019-01-04T13:19:36.059Z,4.90
2019-01-04T13:22:05.545Z,4.90
2019-01-04T13:24:37.683Z,4.80
2019-01-04T13:27:08.320Z,4.70
2019-01-04T13:29:37.714Z,4.80
2019-01-04T13:32:10.804Z,4.80
2019-01-04T13:34:40.708Z,4.80
2019-01-04T13:37:18.957Z,4.80
2019-01-04T13:39:52.160Z,4.80
2019-01-04T13:42:24.513Z,4.80
2019-01-04T13:44:55.714Z,4.80
2019-01-04T13:47:25.135Z,4.70
2019-01-04T13:49:54.565Z,4.80
2019-01-04T13:52:24.011Z,4.80
2019-01-04T13:54:53.707Z,4.70
2019-01-04T13:57:23.188Z,4.60
2019-01-04T13:59:52.860Z,4.60
2019-01-04T14:02:22.250Z,4.70
2019-01-04T14:04:51.791Z,4.70
2019-01-04T14:07:24.086Z,4.80
2019-01-04T14:09:58.023Z,4.80
2019-01-04T14:12:30.427Z,4.70
2019-01-04T14:14:59.876Z,4.70
2019-01-04T14:17:29.290Z,4.70
2019-01-04T14:19:58.685Z,4.80
2019-01-04T14:22:30.218Z,4.80
2019-01-04T14:24:59.644Z,4.80
2019-01-04T14:27:29.058Z,4.80
2019-01-04T14:29:58.438Z,4.80
2019-01-04T14:32:27.889Z,4.80
2019-01-04T14:34:57.261Z,4.70
2019-01-04T14:37:26.594Z,4.80
2019-01-04T14:39:56.011Z,4.90
2019-01-04T14:42:25.434Z,4.80
2019-01-04T14:44:54.937Z,4.90
2019-01-04T14:47:24.290Z,4.80
2019-01-04T14:49:53.997Z,4.90
2019-01-04T14:52:25.129Z,5.00
2019-01-04T14:54:54.954Z,5.00
2019-01-04T14:57:24.336Z,5.00
2019-01-04T14:59:53.781Z,4.80
2019-01-04T15:02:23.194Z,4.80
2019-01-04T15:04:52.789Z,4.80
2019-01-04T15:07:22.711Z,4.70
2019-01-04T15:09:52.117Z,4.60
2019-01-04T15:12:21.485Z,4.70
2019-01-04T15:14:53.147Z,4.60
2019-01-04T15:17:21.994Z,4.70
2019-01-04T15:19:54.399Z,4.70
2019-01-04T15:22:23.813Z,4.70
2019-01-04T15:24:53.507Z,4.80
2019-01-04T15:27:25.857Z,4.80
2019-01-04T15:30:00.835Z,4.80
2019-01-04T15:32:32.604Z,4.80
2019-01-04T15:35:05.164Z,4.80
2019-01-04T15:37:47.321Z,4.80
2019-01-04T15:40:16.710Z,4.70
2019-01-04T15:42:46.140Z,4.80
2019-01-04T15:45:15.518Z,4.80
2019-01-04T15:47:44.931Z,4.70
2019-01-04T15:50:14.365Z,4.70
2019-01-04T15:52:43.875Z,4.70
2019-01-04T15:55:13.287Z,4.70
2019-01-04T15:57:42.680Z,4.70
2019-01-04T16:00:13.011Z,4.70
2019-01-04T16:02:42.447Z,4.70
2019-01-04T16:05:11.843Z,4.70
2019-01-04T16:07:44.310Z,4.80
2019-01-04T16:10:16.051Z,4.60
2019-01-04T16:12:45.558Z,4.80
2019-01-04T16:15:16.463Z,4.80
2019-01-04T16:17:46.141Z,4.90
2019-01-04T16:20:15.686Z,4.70
2019-01-04T16:22:45.152Z,4.80
2019-01-04T16:25:16.189Z,4.70
2019-01-04T16:27:47.752Z,4.80
2019-01-04T16:30:16.816Z,4.80
2019-01-04T16:32:46.259Z,4.90
2019-01-04T16:35:15.862Z,4.80
2019-01-04T16:37:45.274Z,4.70
2019-01-04T16:40:14.723Z,4.80
2019-01-04T16:42:44.291Z,4.80
2019-01-04T16:45:13.805Z,4.70
2019-01-04T16:47:43.253Z,4.70
2019-01-04T16:50:12.186Z,4.80
2019-01-04T16:52:41.720Z,4.80
2019-01-04T16:55:11.412Z,4.70
2019-01-04T16:57:41.385Z,4.80
2019-01-04T17:00:11.710Z,4.80
2019-01-04T17:02:41.221Z,4.80
2019-01-04T17:05:10.752Z,4.70
2019-01-04T17:07:40.180Z,4.70
2019-01-04T17:10:09.779Z,4.60
2019-01-04T17:12:39.250Z,4.80
2019-01-04T17:15:08.697Z,4.80
2019-01-04T17:17:38.424Z,4.90
2019-01-04T17:20:08.238Z,4.90
2019-01-04T17:22:37.674Z,4.90
2019-01-04T17:25:10.279Z,4.90
2019-01-04T17:27:39.719Z,4.90
2019-01-04T17:30:09.770Z,5.00
2019-01-04T17:32:39.200Z,5.00
2019-01-04T17:35:09.378Z,5.00
2019-01-04T17:37:39.931Z,5.00
2019-01-04T17:40:10.166Z,5.00
2019-01-04T17:42:39.611Z,5.00
2019-01-04T17:45:12.062Z,5.00
2019-01-04T17:47:41.530Z,5.00
2019-01-04T17:50:11.049Z,4.90
2019-01-04T17:52:40.555Z,5.00
2019-01-04T17:55:09.987Z,5.00
2019-01-04T17:57:39.717Z,5.00
2019-01-04T18:00:10.699Z,5.00
2019-01-04T18:02:40.227Z,5.00
2019-01-04T18:05:09.815Z,4.90
2019-01-04T18:07:39.488Z,5.00
2019-01-04T18:10:09.432Z,5.10
2019-01-04T18:12:39.029Z,5.00
2019-01-04T18:15:09.090Z,5.00
2019-01-04T18:17:38.739Z,5.10
2019-01-04T18:20:10.937Z,5.10
2019-01-04T18:22:42.203Z,5.10
2019-01-04T18:25:13.105Z,5.10
2019-01-04T18:27:42.734Z,5.10
2019-01-04T18:30:12.282Z,5.20
2019-01-04T18:32:41.929Z,5.20
2019-01-04T18:35:11.636Z,5.10
2019-01-04T18:37:42.481Z,5.00
2019-01-04T18:40:12.153Z,5.10
2019-01-04T18:42:41.516Z,5.10
2019-01-04T18:45:11.003Z,5.10
2019-01-04T18:47:40.447Z,5.00
2019-01-04T18:50:12.533Z,5.10
2019-01-04T18:52:42.029Z,5.10
2019-01-04T18:55:11.682Z,5.10
2019-01-04T18:57:41.334Z,5.00
2019-01-04T19:00:14.827Z,5.20
2019-01-04T19:02:44.268Z,5.30
2019-01-04T19:05:13.796Z,5.20
2019-01-04T19:07:43.460Z,5.30
2019-01-04T19:10:12.923Z,5.30
2019-01-04T19:12:42.501Z,5.40
2019-01-04T19:15:12.074Z,5.40
2019-01-04T19:17:41.418Z,5.40
2019-01-04T19:20:10.978Z,5.40
2019-01-04T19:22:40.588Z,5.40
2019-01-04T19:25:10.237Z,5.30
2019-01-04T19:27:40.970Z,5.30
2019-01-04T19:30:10.940Z,5.40
2019-01-04T19:32:42.499Z,5.40
2019-01-04T19:35:12.081Z,5.40
2019-01-04T19:37:43.409Z,5.40
2019-01-04T19:40:12.863Z,5.50
2019-01-04T19:42:42.447Z,5.50
2019-01-04T19:45:14.644Z,5.60
2019-01-04T19:47:44.138Z,5.60
2019-01-04T19:50:20.008Z,5.60
2019-01-04T19:52:49.578Z,5.60
2019-01-04T19:55:18.963Z,5.60
2019-01-04T19:57:51.171Z,5.50
2019-01-04T20:00:20.648Z,5.60
2019-01-04T20:02:50.100Z,5.50
2019-01-04T20:05:50.641Z,5.60
2019-01-04T20:09:18.565Z,5.60
2019-01-04T20:12:49.480Z,5.70
2019-01-04T20:16:29.178Z,5.50
2019-01-04T20:19:14.058Z,5.60
2019-01-04T20:22:17.515Z,5.60
2019-01-04T20:25:04.544Z,5.70
2019-01-04T20:28:01.705Z,5.60
2019-01-04T20:30:58.780Z,5.60
2019-01-04T20:33:53.157Z,5.60
2019-01-04T20:36:40.120Z,5.60
2019-01-04T20:39:26.499Z,5.60
2019-01-04T20:42:13.400Z,5.60
2019-01-04T20:45:13.693Z,5.60
2019-01-04T20:48:04.617Z,5.70
2019-01-04T20:50:58.940Z,5.70
2019-01-04T20:53:45.549Z,5.70
2019-01-04T20:56:40.791Z,5.80
2019-01-04T20:59:27.931Z,5.80
2019-01-04T21:02:22.193Z,5.80
2019-01-04T21:05:10.452Z,5.80
2019-01-04T21:07:53.649Z,5.80
2019-01-04T21:10:53.723Z,5.90
2019-01-04T21:13:39.906Z,5.70
2019-01-04T21:16:26.801Z,5.80
2019-01-04T21:19:13.595Z,5.80
2019-01-04T21:22:05.029Z,5.90
2019-01-04T21:24:44.494Z,5.90
2019-01-04T21:27:33.004Z,5.90
2019-01-04T21:30:19.611Z,5.80
2019-01-04T21:33:23.124Z,5.80
2019-01-04T21:36:14.046Z,5.80
2019-01-04T21:39:04.341Z,5.80
2019-01-04T21:42:07.609Z,5.80
2019-01-04T21:44:58.694Z,5.90
2019-01-04T21:48:01.237Z,5.90
2019-01-04T21:50:47.972Z,5.90
2019-01-04T21:53:34.864Z,5.90
2019-01-04T21:56:21.417Z,5.90
2019-01-04T21:59:18.479Z,6.00
2019-01-04T22:02:12.563Z,5.90
2019-01-04T22:05:06.506Z,5.70
2019-01-04T22:07:49.263Z,5.90
2019-01-04T22:10:50.172Z,5.90
2019-01-04T22:13:38.552Z,5.90
2019-01-04T22:16:26.897Z,5.90
2019-01-04T22:19:24.000Z,5.90
2019-01-04T22:22:12.414Z,5.90
2019-01-04T22:25:09.490Z,6.00
2019-01-04T22:28:15.680Z,5.90
2019-01-04T22:30:59.490Z,5.90
2019-01-04T22:34:05.678Z,5.90
2019-01-04T22:36:55.091Z,5.90
2019-01-04T22:40:01.354Z,5.90
2019-01-04T22:42:49.767Z,5.90
2019-01-04T22:45:38.204Z,6.00
2019-01-04T22:48:38.747Z,6.00
2019-01-04T22:51:29.598Z,5.90
2019-01-04T22:54:16.581Z,6.00
2019-01-04T22:57:03.473Z,5.80
2019-01-04T22:59:51.802Z,5.90
2019-01-04T23:02:45.819Z,5.80
2019-01-04T23:05:49.504Z,5.80
2019-01-04T23:08:36.390Z,5.80
2019-01-04T23:11:42.544Z,5.90
2019-01-04T23:14:36.356Z,5.90
2019-01-04T23:17:24.935Z,6.00
2019-01-04T23:20:16.421Z,6.00
2019-01-04T23:23:06.398Z,5.90
2019-01-04T23:26:09.927Z,6.00
2019-01-04T23:28:58.191Z,6.00
2019-01-04T23:31:46.321Z,6.00
2019-01-04T23:34:33.231Z,6.00
2019-01-04T23:37:42.423Z,6.20
2019-01-04T23:40:35.340Z,6.10
2019-01-04T23:43:36.908Z,6.00
2019-01-04T23:46:26.398Z,6.00
2019-01-04T23:49:19.332Z,6.00
2019-01-04T23:52:05.999Z,6.10
2019-01-04T23:55:01.450Z,6.10
2019-01-04T23:57:49.752Z,6.10
